Acton, Indiana
Current Conditions -  °F | °C
As of 7:53 PM on Wednesday 22 Oct 2014 (Local Time) from KGEZ Reporting Station
Clear Clear  
Wind Chill:   Ceiling: Unl
Heat Index:   Visibility: 10mi
Dew Point:   Wind: 5mph
Humidity: 71%   Direction: 40°NE
Pressure: 30.26"   Gusts: NA
Location:  39.6613°N, 85.9949°W
Report Text: KGEZ 222353Z AUTO 04004KT 10SM CLR 08/03 A3026 RMK AO2 SLP250 T00830033 10150 20083 55000
Loading
Personal Weather Stations






























Interactive Weather Map
Tropical Storm Tracking
New forecast layout! Learn more

10-Day Weather Forecast

Advertisements
Track Severe Weather on mobile